CheckWX is a tool to help pilots better visualize weather data.  It is not intended as a substitute for an official pre-flight weather briefing.

11:11:36 UTC

YPCC METAR
Cocos (Keeling) Islands Airport
Cocos (Keeling) Islands, Australia
Current

12 mins ago

YPCC 261100Z AUTO 09017KT 9999 // NCD 28/23 Q1010
Observed
May-26 @ 11:00 UTC
Wind
  • 090° at 17 KTS
Visibility
10,000+ meters
Flight Rules
VFR
Cloud Levels
  • Clear skies
Temperature
28°C / 82°F
Dewpoint
23°C / 73°F
Heat Index
31°C / 87°F
Humidity
74%
Altimeter
29.82" Hg
Pressure
1009.92 hPa
Previous

42 mins ago

YPCC 261030Z AUTO 09018KT 9999 // NCD 28/23 Q1010 RF00.0/000.0
Observed
May-26 @ 10:30 UTC
Wind
  • 090° at 18 KTS
Visibility
10,000+ meters
Flight Rules
VFR
Cloud Levels
  • Clear skies
Temperature
28°C / 82°F
Dewpoint
23°C / 73°F
Heat Index
31°C / 87°F
Humidity
74%
Altimeter
29.82" Hg
Pressure
1009.92 hPa
Previous

1 hour ago

YPCC 261000Z AUTO 09018KT 9999 // NCD 29/23 Q1010
Observed
May-26 @ 10:00 UTC
Wind
  • 090° at 18 KTS
Visibility
10,000+ meters
Flight Rules
VFR
Cloud Levels
  • Clear skies
Temperature
29°C / 84°F
Dewpoint
23°C / 73°F
Heat Index
32°C / 90°F
Humidity
70%
Altimeter
29.82" Hg
Pressure
1009.92 hPa